CYYR

CFB Goose Bay

Airport
ICAO code
CYYR
IATA Code
YYR
Summary
ICAO Region
NAM
ICAO Territory
Location

Goose Bay, Labrador

Serving
Goose Bay
Elevation
160 ft
Coordinates
53° 18' 56" N , 60° 25' 6" W
KCC
Metar
Observation
CYYR 280500Z 27005KT 15SM FEW028 SCT060 M04/M07 A2943 RMK SC1SC3 SLP969
Station
Goose, Nfld.
Date/Time
2022-11-28 05:00:00
Wind direction
270°
Wind speed
05 kts
Lowest cloud amount
few clouds
Temperature
-4°C
Dew point
-7°C
Humidity
79%
Weather condition
n/a

Description

International civil and military (Canadian Forces) airport serving Happy Valley, Labrador. There is a significant amount of military flying activity between the airport and nearby military flying areas.

Climatology

Subarctic climate (Köppen climate classification Dfc) - long, usually very cold winters, and short, cool to mild summers.

Runways

Designator Length Width Surface Rops
16/34 2920 61 ASP Yes/Yes
8/26 3367 64 ASP Yes/Yes

Airport map

Aerial View

SKYbrary Partners:

Safety knowledge contributed by: